createdAt,value
2023-05-14T00:01:14.683Z,74.85
2023-05-14T00:03:43.077Z,75.05
2023-05-14T00:06:11.479Z,74.39
2023-05-14T00:08:39.773Z,75.47
2023-05-14T00:11:09.169Z,75.60
2023-05-14T00:13:37.744Z,75.33
2023-05-14T00:16:06.207Z,76.07
2023-05-14T00:18:34.671Z,75.31
2023-05-14T00:21:03.318Z,76.09
2023-05-14T00:23:31.712Z,76.01
2023-05-14T00:26:00.090Z,76.35
2023-05-14T00:28:28.436Z,76.66
2023-05-14T00:30:57.371Z,77.13
2023-05-14T00:33:25.783Z,76.71
2023-05-14T00:35:54.179Z,76.26
2023-05-14T00:38:24.303Z,76.89
2023-05-14T00:40:52.677Z,77.13
2023-05-14T00:43:22.778Z,76.80
2023-05-14T00:45:54.352Z,76.83
2023-05-14T00:48:23.758Z,77.59
2023-05-14T00:50:52.339Z,76.61
2023-05-14T00:53:21.408Z,76.77
2023-05-14T00:55:50.611Z,76.57
2023-05-14T00:58:19.658Z,76.50
2023-05-14T01:00:48.385Z,76.67
2023-05-14T01:03:16.941Z,76.53
2023-05-14T01:05:51.481Z,77.06
2023-05-14T01:08:31.633Z,76.91
2023-05-14T01:11:06.770Z,77.27
2023-05-14T01:14:10.193Z,77.76
2023-05-14T01:16:40.730Z,76.89
2023-05-14T01:19:21.750Z,77.45
2023-05-14T01:21:49.911Z,77.53
2023-05-14T01:24:18.265Z,77.66
2023-05-14T01:26:46.689Z,77.05
2023-05-14T01:29:23.313Z,77.26
2023-05-14T01:31:54.440Z,77.82
2023-05-14T01:34:24.607Z,76.83
2023-05-14T01:36:54.005Z,77.04
2023-05-14T01:39:24.268Z,76.70
2023-05-14T01:41:53.618Z,76.53
2023-05-14T01:44:22.104Z,77.07
2023-05-14T01:46:50.458Z,76.66
2023-05-14T01:49:19.781Z,77.37
2023-05-14T01:51:48.133Z,77.54
2023-05-14T01:54:16.408Z,77.06
2023-05-14T01:56:44.728Z,76.34
2023-05-14T01:59:13.058Z,77.04
2023-05-14T02:01:41.893Z,76.79
2023-05-14T02:04:10.253Z,76.47
2023-05-14T02:06:38.572Z,77.18
2023-05-14T02:09:07.078Z,77.32
2023-05-14T02:11:35.587Z,77.41
2023-05-14T02:14:03.892Z,77.42
2023-05-14T02:16:32.376Z,77.67
2023-05-14T02:19:00.831Z,77.99
2023-05-14T02:21:29.171Z,77.53
2023-05-14T02:23:57.625Z,77.71
2023-05-14T02:26:25.952Z,77.80
2023-05-14T02:28:54.307Z,77.60
2023-05-14T02:31:22.705Z,77.37
2023-05-14T02:33:51.576Z,77.69
2023-05-14T02:36:20.314Z,77.22
2023-05-14T02:38:48.656Z,77.54
2023-05-14T02:41:16.944Z,78.29
2023-05-14T02:43:45.214Z,78.20
2023-05-14T02:46:13.590Z,78.46
2023-05-14T02:48:42.015Z,79.13
2023-05-14T02:51:10.575Z,78.67
2023-05-14T02:53:39.044Z,78.88
2023-05-14T02:56:08.246Z,78.69
2023-05-14T02:58:36.539Z,78.75
2023-05-14T03:01:05.065Z,79.13
2023-05-14T03:03:34.321Z,78.71
2023-05-14T03:06:03.151Z,78.27
2023-05-14T03:08:31.524Z,77.92
2023-05-14T03:11:00.074Z,78.76
2023-05-14T03:13:28.414Z,78.16
2023-05-14T03:15:57.111Z,78.08
2023-05-14T03:18:25.540Z,78.29
2023-05-14T03:20:54.074Z,77.75
2023-05-14T03:23:23.461Z,77.68
2023-05-14T03:25:53.630Z,77.66
2023-05-14T03:28:21.957Z,77.37
2023-05-14T03:30:50.389Z,77.68
2023-05-14T03:33:18.798Z,77.49
2023-05-14T03:35:47.231Z,77.50
2023-05-14T03:38:15.656Z,77.19
2023-05-14T03:40:45.378Z,77.06
2023-05-14T03:43:13.761Z,76.92
2023-05-14T03:45:42.052Z,77.37
2023-05-14T03:48:10.546Z,77.60
2023-05-14T03:50:39.133Z,77.32
2023-05-14T03:53:07.569Z,77.32
2023-05-14T03:55:36.885Z,77.42
2023-05-14T03:58:11.107Z,77.85
2023-05-14T04:00:43.582Z,78.07
2023-05-14T04:03:12.236Z,78.40
2023-05-14T04:05:40.695Z,78.00
2023-05-14T04:08:09.082Z,77.68
2023-05-14T04:10:37.525Z,77.29
2023-05-14T04:13:06.200Z,76.68
2023-05-14T04:15:39.387Z,76.48
2023-05-14T04:18:08.031Z,76.11
2023-05-14T04:20:37.105Z,76.03
2023-05-14T04:23:05.556Z,76.11
2023-05-14T04:25:34.044Z,75.66
2023-05-14T04:28:02.362Z,75.71
2023-05-14T04:30:30.812Z,75.43
2023-05-14T04:32:59.202Z,74.57
2023-05-14T04:35:27.869Z,74.53
2023-05-14T04:37:56.897Z,74.43
2023-05-14T04:40:25.764Z,73.99
2023-05-14T04:42:54.317Z,73.90
2023-05-14T04:45:22.690Z,73.93
2023-05-14T04:47:51.580Z,73.43
2023-05-14T04:50:20.052Z,73.32
2023-05-14T04:52:48.317Z,72.84
2023-05-14T04:55:16.755Z,72.98
2023-05-14T04:57:45.099Z,72.67
2023-05-14T05:00:13.933Z,72.06
2023-05-14T05:02:42.322Z,71.30
2023-05-14T05:05:11.044Z,70.59
2023-05-14T05:07:39.335Z,70.61
2023-05-14T05:10:08.457Z,70.29
2023-05-14T05:12:36.776Z,69.88
2023-05-14T05:15:05.764Z,69.81
2023-05-14T05:17:34.066Z,69.01
2023-05-14T05:20:02.376Z,68.54
2023-05-14T05:22:30.981Z,68.11
2023-05-14T05:24:59.958Z,67.96
2023-05-14T05:27:28.418Z,67.37
2023-05-14T05:29:57.014Z,67.09
2023-05-14T05:32:25.627Z,65.89
2023-05-14T05:34:54.061Z,66.26
2023-05-14T05:37:22.351Z,65.60
2023-05-14T05:39:50.689Z,65.24
2023-05-14T05:42:18.981Z,65.00
2023-05-14T05:44:47.556Z,65.28
2023-05-14T05:47:17.264Z,65.20
2023-05-14T05:49:45.628Z,64.25
2023-05-14T05:52:14.037Z,63.33
2023-05-14T05:54:42.362Z,63.22
2023-05-14T05:57:10.760Z,63.35
2023-05-14T05:59:39.107Z,63.12
2023-05-14T06:02:07.424Z,61.46
2023-05-14T06:04:35.791Z,61.21
2023-05-14T06:07:04.544Z,61.41
2023-05-14T06:09:32.811Z,62.44
2023-05-14T06:12:01.169Z,62.57
2023-05-14T06:14:29.570Z,62.22
2023-05-14T06:16:58.831Z,62.27
2023-05-14T06:19:27.235Z,60.32
2023-05-14T06:21:56.166Z,58.03
2023-05-14T06:24:24.524Z,57.86
2023-05-14T06:26:52.813Z,57.12
2023-05-14T06:29:21.148Z,53.19
2023-05-14T06:31:49.665Z,50.30
2023-05-14T06:34:17.989Z,51.39
2023-05-14T06:36:46.394Z,50.25
2023-05-14T06:39:14.746Z,50.23
2023-05-14T06:41:43.151Z,48.52
2023-05-14T06:44:17.251Z,47.56
2023-05-14T06:46:45.584Z,47.39
2023-05-14T06:49:13.984Z,47.46
2023-05-14T06:51:42.699Z,45.91
2023-05-14T06:54:11.044Z,46.93
2023-05-14T06:56:39.363Z,47.37
2023-05-14T06:59:07.679Z,46.92
2023-05-14T07:01:36.148Z,47.50
2023-05-14T07:04:04.689Z,47.10
2023-05-14T07:06:33.016Z,46.60
2023-05-14T07:09:02.047Z,47.00
2023-05-14T07:11:30.489Z,47.50
2023-05-14T07:13:58.847Z,46.49
2023-05-14T07:16:27.407Z,44.48
2023-05-14T07:18:55.748Z,43.97
2023-05-14T07:21:24.114Z,44.08
2023-05-14T07:23:52.383Z,44.21
2023-05-14T07:26:21.569Z,43.73
2023-05-14T07:28:50.101Z,43.40
2023-05-14T07:31:18.498Z,43.20
2023-05-14T07:33:46.876Z,43.81
2023-05-14T07:36:15.240Z,42.37
2023-05-14T07:38:43.509Z,40.78
2023-05-14T07:41:12.353Z,41.92
2023-05-14T07:43:40.796Z,41.84
2023-05-14T07:46:09.153Z,42.97
2023-05-14T07:48:37.506Z,41.14
2023-05-14T07:51:05.872Z,41.00
2023-05-14T07:53:34.169Z,41.76
2023-05-14T07:56:02.521Z,41.57
2023-05-14T07:58:31.018Z,40.64
2023-05-14T08:00:59.481Z,41.32
2023-05-14T08:03:27.840Z,42.10
2023-05-14T08:05:56.602Z,40.85
2023-05-14T08:08:24.955Z,40.24
2023-05-14T08:10:53.402Z,40.24
2023-05-14T08:13:21.876Z,39.30
2023-05-14T08:15:50.297Z,39.24
2023-05-14T08:18:18.592Z,39.78
2023-05-14T08:20:47.201Z,39.80
2023-05-14T08:23:15.563Z,38.17
2023-05-14T08:25:43.835Z,39.23
2023-05-14T08:28:12.312Z,40.70
2023-05-14T08:30:40.728Z,40.01
2023-05-14T08:33:09.402Z,39.69
2023-05-14T08:35:37.786Z,40.67
2023-05-14T08:38:06.172Z,40.60
2023-05-14T08:40:34.875Z,39.70
2023-05-14T08:43:03.860Z,40.26
2023-05-14T08:45:34.475Z,40.20
2023-05-14T08:48:09.171Z,39.37
2023-05-14T08:50:37.871Z,40.02
2023-05-14T08:53:06.342Z,39.67
2023-05-14T08:55:35.439Z,40.01
2023-05-14T08:58:04.075Z,39.55
2023-05-14T09:00:32.415Z,39.63
2023-05-14T09:03:01.587Z,38.92
2023-05-14T09:05:30.128Z,39.16
2023-05-14T09:07:58.522Z,40.67
2023-05-14T09:10:27.046Z,40.30
2023-05-14T09:12:55.495Z,40.32
2023-05-14T09:15:27.834Z,39.57
2023-05-14T09:17:56.940Z,39.05
2023-05-14T09:20:26.612Z,39.31
2023-05-14T09:22:55.176Z,39.11
2023-05-14T09:25:28.517Z,39.07
2023-05-14T09:27:59.030Z,39.75
2023-05-14T09:30:27.509Z,39.58
2023-05-14T09:32:55.884Z,39.21
2023-05-14T09:35:25.554Z,39.80
2023-05-14T09:37:55.601Z,39.47
2023-05-14T09:40:25.000Z,39.52
2023-05-14T09:42:53.679Z,39.17
2023-05-14T09:45:22.229Z,39.83
2023-05-14T09:47:50.764Z,40.56
2023-05-14T09:50:19.456Z,40.18
2023-05-14T09:52:47.997Z,40.13
2023-05-14T09:55:16.524Z,39.85
2023-05-14T09:57:45.257Z,39.46
2023-05-14T10:00:14.219Z,39.81
2023-05-14T10:02:45.211Z,38.50
2023-05-14T10:05:16.079Z,38.76
2023-05-14T10:07:48.333Z,38.31
2023-05-14T10:10:19.837Z,38.28
2023-05-14T10:13:01.217Z,38.55
2023-05-14T10:15:43.617Z,38.11
2023-05-14T10:18:16.536Z,37.44
2023-05-14T10:20:49.137Z,37.03
2023-05-14T10:23:18.106Z,36.67
2023-05-14T10:25:46.705Z,36.55
2023-05-14T10:28:15.129Z,37.05
2023-05-14T10:30:47.128Z,38.02
2023-05-14T10:33:18.328Z,38.75
2023-05-14T10:36:03.428Z,38.75
2023-05-14T10:38:37.103Z,38.33
2023-05-14T10:41:10.635Z,38.86
2023-05-14T10:43:40.481Z,39.21
2023-05-14T10:46:11.145Z,39.56
2023-05-14T10:48:41.201Z,40.34
2023-05-14T10:51:11.076Z,40.89
2023-05-14T10:53:41.979Z,41.02
2023-05-14T10:56:12.368Z,41.27
2023-05-14T10:58:44.862Z,40.88
2023-05-14T11:01:13.910Z,40.43
2023-05-14T11:03:47.138Z,40.51
2023-05-14T11:06:16.472Z,39.86
2023-05-14T11:08:46.607Z,40.09
2023-05-14T11:11:15.236Z,40.66
2023-05-14T11:13:44.905Z,41.14
2023-05-14T11:16:23.513Z,40.87
2023-05-14T11:19:03.798Z,40.77
2023-05-14T11:21:35.096Z,41.17
2023-05-14T11:24:05.605Z,41.70
2023-05-14T11:26:34.499Z,41.70
2023-05-14T11:29:02.979Z,41.49
2023-05-14T11:31:31.644Z,41.58
2023-05-14T11:34:01.157Z,41.68
2023-05-14T11:36:29.476Z,41.27
2023-05-14T11:38:57.809Z,41.34
2023-05-14T11:41:28.274Z,41.06
2023-05-14T11:43:58.228Z,41.62
2023-05-14T11:46:26.729Z,41.95
2023-05-14T11:48:55.441Z,41.45
2023-05-14T11:51:24.751Z,41.47
2023-05-14T11:53:54.432Z,40.18
2023-05-14T11:56:22.788Z,39.73
2023-05-14T11:58:58.387Z,39.48
2023-05-14T12:01:28.651Z,38.52
2023-05-14T12:03:57.117Z,39.54
2023-05-14T12:06:31.898Z,39.36
2023-05-14T12:09:01.725Z,39.71
2023-05-14T12:11:33.581Z,40.07
2023-05-14T12:14:02.105Z,39.60
2023-05-14T12:16:35.443Z,40.00
2023-05-14T12:19:05.291Z,41.34
2023-05-14T12:21:34.956Z,42.40
2023-05-14T12:24:03.605Z,42.89
2023-05-14T12:26:35.164Z,43.15
2023-05-14T12:29:04.041Z,43.93
2023-05-14T12:31:35.248Z,44.15
2023-05-14T12:34:04.489Z,43.87
2023-05-14T12:36:32.986Z,43.69
2023-05-14T12:39:03.945Z,44.42
2023-05-14T12:41:33.805Z,44.87
2023-05-14T12:44:04.192Z,44.56
2023-05-14T12:46:33.327Z,44.79
2023-05-14T12:49:01.756Z,45.20
2023-05-14T12:51:30.184Z,45.36
2023-05-14T12:53:58.492Z,45.47
2023-05-14T12:56:28.581Z,44.84
2023-05-14T12:58:57.089Z,45.50
2023-05-14T13:01:25.543Z,46.59
2023-05-14T13:03:54.118Z,47.48
2023-05-14T13:06:22.627Z,49.30
2023-05-14T13:08:50.983Z,50.07
2023-05-14T13:11:19.272Z,51.14
2023-05-14T13:13:47.588Z,51.76
2023-05-14T13:16:17.103Z,53.33
2023-05-14T13:18:45.714Z,54.10
2023-05-14T13:21:14.210Z,54.20
2023-05-14T13:23:42.648Z,55.05
2023-05-14T13:26:11.056Z,55.85
2023-05-14T13:28:39.349Z,56.86
2023-05-14T13:31:12.856Z,56.54
2023-05-14T13:33:43.086Z,57.53
2023-05-14T13:36:14.428Z,57.96
2023-05-14T13:38:42.856Z,58.94
2023-05-14T13:41:11.128Z,59.28
2023-05-14T13:43:39.457Z,59.45
2023-05-14T13:46:07.920Z,59.40
2023-05-14T13:48:37.374Z,58.72
2023-05-14T13:51:05.817Z,59.61
2023-05-14T13:53:34.260Z,58.80
2023-05-14T13:56:02.802Z,59.06
2023-05-14T13:58:31.161Z,58.98
2023-05-14T14:00:59.617Z,58.34
2023-05-14T14:03:27.945Z,58.47
2023-05-14T14:05:56.292Z,56.89
2023-05-14T14:08:24.861Z,54.94
2023-05-14T14:10:55.394Z,55.32
2023-05-14T14:13:24.513Z,54.99
2023-05-14T14:15:53.064Z,54.84
2023-05-14T14:18:21.504Z,53.94
2023-05-14T14:20:49.995Z,54.70
2023-05-14T14:23:19.742Z,55.05
2023-05-14T14:25:48.301Z,55.84
2023-05-14T14:28:16.702Z,54.84
2023-05-14T14:30:45.202Z,54.92
2023-05-14T14:33:13.574Z,54.73
2023-05-14T14:35:41.907Z,54.78
2023-05-14T14:38:10.155Z,54.41
2023-05-14T14:40:38.604Z,54.14
2023-05-14T14:43:06.936Z,54.43
2023-05-14T14:45:35.217Z,54.70
2023-05-14T14:48:22.983Z,55.00
2023-05-14T14:50:52.124Z,55.27
2023-05-14T14:53:23.782Z,54.93
2023-05-14T14:55:52.430Z,54.23
2023-05-14T14:58:21.359Z,53.83
2023-05-14T15:00:53.485Z,53.34
2023-05-14T15:03:22.663Z,53.90
2023-05-14T15:05:52.318Z,53.44
2023-05-14T15:08:27.592Z,52.78
2023-05-14T15:10:56.638Z,53.25
2023-05-14T15:13:25.873Z,53.05
2023-05-14T15:15:54.413Z,52.44
2023-05-14T15:18:22.877Z,52.00
2023-05-14T15:20:52.246Z,52.01
2023-05-14T15:23:20.697Z,51.58
2023-05-14T15:25:49.636Z,51.92
2023-05-14T15:28:18.015Z,51.57
2023-05-14T15:30:48.524Z,51.73
2023-05-14T15:33:19.426Z,52.72
2023-05-14T15:35:48.159Z,51.65
2023-05-14T15:38:16.518Z,51.80
2023-05-14T15:40:44.950Z,51.54
2023-05-14T15:43:13.295Z,52.02
2023-05-14T15:45:43.229Z,51.82
2023-05-14T15:48:11.764Z,52.17
2023-05-14T15:50:40.494Z,52.39
2023-05-14T15:53:11.301Z,51.61
2023-05-14T15:55:39.737Z,51.64
2023-05-14T15:58:08.135Z,51.41
2023-05-14T16:00:36.588Z,51.47
2023-05-14T16:03:05.451Z,51.61
2023-05-14T16:05:34.436Z,51.18
2023-05-14T16:08:03.771Z,50.78
2023-05-14T16:10:32.157Z,51.09
2023-05-14T16:13:00.550Z,50.87
2023-05-14T16:15:29.225Z,50.47
2023-05-14T16:17:57.571Z,49.94
2023-05-14T16:20:26.090Z,49.87
2023-05-14T16:22:54.743Z,49.89
2023-05-14T16:25:23.183Z,49.96
2023-05-14T16:27:51.538Z,50.31
2023-05-14T16:30:19.885Z,50.27
2023-05-14T16:32:49.710Z,50.41
2023-05-14T16:35:18.062Z,50.45
2023-05-14T16:37:46.464Z,50.15
2023-05-14T16:40:16.303Z,50.69
2023-05-14T16:42:46.436Z,50.93
2023-05-14T16:45:16.228Z,50.86
2023-05-14T16:47:44.672Z,50.92
2023-05-14T16:50:13.101Z,50.79
2023-05-14T16:52:41.381Z,51.06
2023-05-14T16:55:10.102Z,51.03
2023-05-14T16:57:38.520Z,51.18
2023-05-14T17:00:07.902Z,50.87
2023-05-14T17:02:36.452Z,51.22
2023-05-14T17:05:05.911Z,51.25
2023-05-14T17:07:34.424Z,51.27
2023-05-14T17:10:02.818Z,51.00
2023-05-14T17:12:31.241Z,51.11
2023-05-14T17:14:59.675Z,50.68
2023-05-14T17:17:29.162Z,50.28
2023-05-14T17:19:57.513Z,50.45
2023-05-14T17:22:26.058Z,50.36
2023-05-14T17:24:54.507Z,50.17
2023-05-14T17:27:23.108Z,49.93
2023-05-14T17:29:51.520Z,49.45
2023-05-14T17:32:19.876Z,48.94
2023-05-14T17:34:48.258Z,48.86
2023-05-14T17:37:16.661Z,49.26
2023-05-14T17:39:44.937Z,49.12
2023-05-14T17:42:13.289Z,49.34
2023-05-14T17:44:41.613Z,49.01
2023-05-14T17:47:10.374Z,49.27
2023-05-14T17:49:39.038Z,49.32
2023-05-14T17:52:10.557Z,49.48
2023-05-14T17:54:38.872Z,49.34
2023-05-14T17:57:07.329Z,49.14
2023-05-14T17:59:35.722Z,49.15
2023-05-14T18:02:05.792Z,48.95
2023-05-14T18:04:34.227Z,48.38
2023-05-14T18:07:03.378Z,48.17
2023-05-14T18:09:31.908Z,47.64
2023-05-14T18:12:00.217Z,47.44
2023-05-14T18:14:28.660Z,47.44
2023-05-14T18:16:57.222Z,47.34
2023-05-14T18:19:25.752Z,47.35
2023-05-14T18:21:55.603Z,47.39
2023-05-14T18:24:24.012Z,47.32
2023-05-14T18:26:52.456Z,47.41
2023-05-14T18:29:20.760Z,47.11
2023-05-14T18:31:49.188Z,47.47
2023-05-14T18:34:17.654Z,47.75
2023-05-14T18:36:46.584Z,47.74
2023-05-14T18:39:14.861Z,48.13
2023-05-14T18:41:43.179Z,47.90
2023-05-14T18:44:11.466Z,48.11
2023-05-14T18:46:40.015Z,48.10
2023-05-14T18:49:08.599Z,48.08
2023-05-14T18:51:37.009Z,47.76
2023-05-14T18:54:05.509Z,47.93
2023-05-14T18:56:35.055Z,47.72
2023-05-14T18:59:04.519Z,47.78
2023-05-14T19:01:32.885Z,47.67
2023-05-14T19:04:03.133Z,47.67
2023-05-14T19:06:33.110Z,47.45
2023-05-14T19:09:01.602Z,47.43
2023-05-14T19:11:29.876Z,47.41
2023-05-14T19:13:58.300Z,47.45
2023-05-14T19:16:27.221Z,47.64
2023-05-14T19:18:55.861Z,47.44
2023-05-14T19:21:24.206Z,47.81
2023-05-14T19:23:52.841Z,47.92
2023-05-14T19:26:21.886Z,47.86
2023-05-14T19:28:50.537Z,48.05
2023-05-14T19:31:18.835Z,48.16
2023-05-14T19:33:47.236Z,48.11
2023-05-14T19:36:15.769Z,48.08
2023-05-14T19:38:44.145Z,48.12
2023-05-14T19:41:12.966Z,48.11
2023-05-14T19:43:41.354Z,48.13
2023-05-14T19:46:09.782Z,48.19
2023-05-14T19:48:38.989Z,48.33
2023-05-14T19:51:07.587Z,48.39
2023-05-14T19:53:35.931Z,48.48
2023-05-14T19:56:04.512Z,48.60
2023-05-14T19:58:32.793Z,48.71
2023-05-14T20:01:01.161Z,48.70
2023-05-14T20:03:30.057Z,48.75
2023-05-14T20:05:58.406Z,48.75
2023-05-14T20:08:26.877Z,48.86
2023-05-14T20:10:55.422Z,49.05
2023-05-14T20:13:25.278Z,49.14
2023-05-14T20:15:55.334Z,49.33
2023-05-14T20:18:23.925Z,49.53
2023-05-14T20:20:52.292Z,49.52
2023-05-14T20:23:20.920Z,49.63
2023-05-14T20:25:49.389Z,49.75
2023-05-14T20:28:17.779Z,50.17
2023-05-14T20:30:46.133Z,50.35
2023-05-14T20:33:15.140Z,50.31
2023-05-14T20:35:44.217Z,50.06
2023-05-14T20:38:13.499Z,50.12
2023-05-14T20:40:41.865Z,50.64
2023-05-14T20:43:10.433Z,50.78
2023-05-14T20:45:39.308Z,50.76
2023-05-14T20:48:10.253Z,50.99
2023-05-14T20:50:38.703Z,51.15
2023-05-14T20:53:07.056Z,51.16
2023-05-14T20:55:35.501Z,51.12
2023-05-14T20:58:04.040Z,51.12
2023-05-14T21:00:32.327Z,51.08
2023-05-14T21:03:00.970Z,51.20
2023-05-14T21:05:29.605Z,51.21
2023-05-14T21:07:57.953Z,51.50
2023-05-14T21:10:26.580Z,51.77
2023-05-14T21:12:55.131Z,51.76
2023-05-14T21:15:23.892Z,51.69
2023-05-14T21:17:52.577Z,51.69
2023-05-14T21:20:21.107Z,52.01
2023-05-14T21:22:49.382Z,51.83
2023-05-14T21:25:17.852Z,51.93
2023-05-14T21:27:46.423Z,52.01
2023-05-14T21:30:15.050Z,52.00
2023-05-14T21:32:43.433Z,52.10
2023-05-14T21:35:11.760Z,51.94
2023-05-14T21:37:40.624Z,51.86
2023-05-14T21:40:09.821Z,51.86
2023-05-14T21:42:39.692Z,51.70
2023-05-14T21:45:08.520Z,51.84
2023-05-14T21:47:37.504Z,51.88
2023-05-14T21:50:07.017Z,51.88
2023-05-14T21:52:37.040Z,52.15
2023-05-14T21:55:05.805Z,52.25
2023-05-14T21:57:34.623Z,52.32
2023-05-14T22:00:07.916Z,52.55
2023-05-14T22:02:36.314Z,52.33
2023-05-14T22:05:05.418Z,52.50
2023-05-14T22:07:33.752Z,52.53
2023-05-14T22:10:02.407Z,52.66
2023-05-14T22:12:30.922Z,52.55
2023-05-14T22:14:59.221Z,52.36
2023-05-14T22:17:30.422Z,52.29
2023-05-14T22:19:58.755Z,52.27
2023-05-14T22:22:27.156Z,52.03
2023-05-14T22:24:55.808Z,52.14
2023-05-14T22:27:24.111Z,52.04
2023-05-14T22:29:52.508Z,51.99
2023-05-14T22:32:21.255Z,51.95
2023-05-14T22:34:49.665Z,51.87
2023-05-14T22:37:18.123Z,51.95
2023-05-14T22:39:46.463Z,51.70
2023-05-14T22:42:14.784Z,51.84
2023-05-14T22:44:43.060Z,51.82
2023-05-14T22:47:11.404Z,51.89
2023-05-14T22:49:43.761Z,51.79
2023-05-14T22:52:12.168Z,51.80
2023-05-14T22:54:40.495Z,51.84
2023-05-14T22:57:08.831Z,51.77
2023-05-14T22:59:37.182Z,51.89
2023-05-14T23:02:06.024Z,51.84
2023-05-14T23:04:35.808Z,51.71
2023-05-14T23:07:04.395Z,51.80
2023-05-14T23:09:32.658Z,51.56
2023-05-14T23:12:00.922Z,51.45
2023-05-14T23:14:29.175Z,51.58
2023-05-14T23:16:57.532Z,51.75
2023-05-14T23:19:26.784Z,51.88
2023-05-14T23:21:55.180Z,52.13
2023-05-14T23:24:23.501Z,52.47
2023-05-14T23:26:51.886Z,53.03
2023-05-14T23:29:20.190Z,53.00
2023-05-14T23:31:48.640Z,53.08
2023-05-14T23:34:18.618Z,53.46
2023-05-14T23:36:46.905Z,53.41
2023-05-14T23:39:15.201Z,53.50
2023-05-14T23:41:43.524Z,53.82
2023-05-14T23:44:11.848Z,54.03
2023-05-14T23:46:40.205Z,53.90
2023-05-14T23:49:08.518Z,54.18
2023-05-14T23:51:37.838Z,54.25
2023-05-14T23:54:06.200Z,54.30
2023-05-14T23:56:34.644Z,54.20
2023-05-14T23:59:03.763Z,54.24
